createdAt,value
2019-02-28T00:02:00.639Z,18.93
2019-02-28T00:04:32.106Z,16.80
2019-02-28T00:06:57.089Z,17.67
2019-02-28T00:09:25.658Z,19.73
2019-02-28T00:11:52.435Z,18.67
2019-02-28T00:14:19.167Z,20.53
2019-02-28T00:16:45.950Z,20.40
2019-02-28T00:19:12.825Z,19.77
2019-02-28T00:21:40.613Z,20.50
2019-02-28T00:24:08.408Z,22.17
2019-02-28T00:26:35.301Z,20.43
2019-02-28T00:29:02.029Z,20.20
2019-02-28T00:31:41.985Z,21.60
2019-02-28T00:34:08.807Z,20.07
2019-02-28T00:36:35.531Z,23.97
2019-02-28T00:41:42.913Z,20.70
2019-02-28T00:44:06.561Z,20.33
2019-02-28T00:46:33.795Z,19.23
2019-02-28T00:49:00.869Z,21.10
2019-02-28T00:51:29.768Z,19.47
2019-02-28T00:53:56.206Z,22.60
2019-02-28T00:56:23.169Z,18.57
2019-02-28T00:58:49.812Z,20.53
2019-02-28T01:01:16.802Z,20.30
2019-02-28T01:03:43.654Z,20.37
2019-02-28T01:06:10.669Z,18.30
2019-02-28T01:08:39.372Z,21.07
2019-02-28T01:11:06.149Z,20.23
2019-02-28T01:13:32.883Z,21.70
2019-02-28T01:15:59.775Z,18.67
2019-02-28T01:18:27.042Z,20.63
2019-02-28T01:20:54.061Z,18.23
2019-02-28T01:23:20.972Z,21.17
2019-02-28T01:25:47.927Z,20.00
2019-02-28T01:28:14.656Z,20.03
2019-02-28T01:30:41.373Z,20.43
2019-02-28T01:33:24.581Z,19.07
2019-02-28T01:35:49.641Z,19.17
2019-02-28T01:38:16.372Z,19.97
2019-02-28T01:40:43.245Z,21.77
2019-02-28T01:43:10.467Z,20.07
2019-02-28T01:45:37.213Z,19.87
2019-02-28T01:48:04.116Z,17.03
2019-02-28T01:50:30.947Z,17.13
2019-02-28T01:52:58.192Z,16.50
2019-02-28T01:55:25.181Z,16.37
2019-02-28T01:57:51.802Z,17.17
2019-02-28T02:00:18.534Z,15.13
2019-02-28T02:02:45.313Z,16.47
2019-02-28T02:05:12.244Z,16.27
2019-02-28T02:07:39.549Z,17.97
2019-02-28T02:12:47.312Z,17.77
2019-02-28T02:15:16.795Z,14.10
2019-02-28T02:17:42.709Z,16.93
2019-02-28T02:20:09.723Z,15.67
2019-02-28T02:22:36.444Z,15.27
2019-02-28T02:25:04.247Z,16.23
2019-02-28T02:27:32.533Z,17.43
2019-02-28T02:29:59.887Z,15.63
2019-02-28T02:32:26.980Z,15.83
2019-02-28T02:35:08.336Z,14.70
2019-02-28T02:37:35.144Z,14.73
2019-02-28T02:40:01.894Z,14.37
2019-02-28T02:42:28.940Z,14.63
2019-02-28T02:44:55.670Z,15.27
2019-02-28T02:47:22.684Z,16.37
2019-02-28T02:49:56.097Z,13.60
2019-02-28T02:52:25.879Z,14.73
2019-02-28T02:54:47.127Z,14.83
2019-02-28T02:57:15.642Z,13.23
2019-02-28T02:59:43.174Z,12.57
2019-02-28T03:02:10.206Z,15.03
2019-02-28T03:04:58.547Z,14.83
2019-02-28T03:07:25.300Z,13.33
2019-02-28T03:09:52.441Z,14.97
2019-02-28T03:12:19.150Z,15.70
2019-02-28T03:14:48.685Z,15.40
2019-02-28T03:19:43.510Z,14.83
2019-02-28T03:22:10.513Z,13.03
2019-02-28T03:24:37.141Z,13.57
2019-02-28T03:27:03.992Z,14.07
2019-02-28T03:29:30.778Z,13.57
2019-02-28T03:31:59.564Z,13.73
2019-02-28T03:34:26.377Z,14.60
2019-02-28T03:36:57.054Z,14.53
2019-02-28T03:39:24.496Z,13.33
2019-02-28T03:41:52.938Z,14.63
2019-02-28T03:44:21.683Z,16.17
2019-02-28T03:46:49.454Z,14.33
2019-02-28T03:49:17.028Z,12.13
2019-02-28T03:51:44.607Z,14.23
2019-02-28T03:54:11.644Z,15.83
2019-02-28T03:56:38.735Z,13.77
2019-02-28T03:59:05.980Z,14.87
2019-02-28T04:01:33.593Z,12.53
2019-02-28T04:04:48.694Z,14.57
2019-02-28T04:07:15.558Z,15.07
2019-02-28T04:09:43.786Z,14.80
2019-02-28T04:12:18.103Z,14.23
2019-02-28T04:14:44.804Z,14.53
2019-02-28T04:17:11.896Z,15.83
2019-02-28T04:19:38.971Z,15.47
2019-02-28T04:22:05.867Z,14.70
2019-02-28T04:24:52.498Z,13.20
2019-02-28T04:27:19.880Z,16.23
2019-02-28T04:29:47.317Z,17.83
2019-02-28T04:32:14.994Z,14.83
2019-02-28T04:34:48.533Z,17.10
2019-02-28T04:37:11.245Z,15.93
2019-02-28T04:39:39.031Z,18.57
2019-02-28T04:42:06.124Z,15.73
2019-02-28T04:44:34.562Z,17.13
2019-02-28T04:47:03.460Z,15.37
2019-02-28T04:49:30.555Z,17.60
2019-02-28T04:51:57.632Z,16.20
2019-02-28T04:54:27.903Z,18.17
2019-02-28T04:56:54.079Z,17.33
2019-02-28T04:59:21.026Z,15.00
2019-02-28T05:01:48.153Z,18.93
2019-02-28T05:04:14.773Z,22.27
2019-02-28T05:06:41.611Z,20.63
2019-02-28T05:09:10.738Z,19.93
2019-02-28T05:11:37.429Z,19.03
2019-02-28T05:14:04.165Z,19.80
2019-02-28T05:16:31.531Z,20.53
2019-02-28T05:19:17.784Z,21.33
2019-02-28T05:21:44.674Z,22.33
2019-02-28T05:24:11.577Z,20.03
2019-02-28T05:26:38.454Z,19.70
2019-02-28T05:29:05.993Z,26.90
2019-02-28T05:31:32.760Z,25.50
2019-02-28T05:33:59.428Z,25.37
2019-02-28T05:36:26.362Z,24.03
2019-02-28T05:38:53.539Z,23.77
2019-02-28T05:41:22.537Z,25.00
2019-02-28T05:43:49.467Z,20.17
2019-02-28T05:46:16.142Z,19.63
2019-02-28T05:49:02.906Z,28.27
2019-02-28T05:51:29.865Z,25.63
2019-02-28T05:54:17.223Z,25.00
2019-02-28T05:56:45.443Z,27.90
2019-02-28T05:59:13.195Z,25.07
2019-02-28T06:01:40.386Z,25.13
2019-02-28T06:04:07.275Z,25.13
2019-02-28T06:06:34.463Z,23.57
2019-02-28T06:09:01.284Z,30.57
2019-02-28T06:11:28.072Z,33.07
2019-02-28T06:13:54.878Z,30.30
2019-02-28T06:16:21.745Z,34.00
2019-02-28T06:18:48.385Z,28.47
2019-02-28T06:21:15.135Z,31.57
2019-02-28T06:26:15.357Z,27.43
2019-02-28T06:28:42.833Z,25.10
2019-02-28T06:31:09.477Z,34.50
2019-02-28T06:33:36.522Z,37.37
2019-02-28T06:36:04.640Z,34.50
2019-02-28T06:38:32.300Z,32.93
2019-02-28T06:41:12.351Z,37.67
2019-02-28T06:43:39.525Z,38.67
2019-02-28T06:46:08.478Z,33.83
2019-02-28T06:51:08.839Z,34.60
2019-02-28T06:56:19.289Z,40.47
2019-02-28T06:58:45.564Z,40.77
2019-02-28T07:01:12.304Z,45.93
2019-02-28T07:03:39.861Z,41.67
2019-02-28T07:06:08.110Z,44.67
2019-02-28T07:08:35.580Z,47.20
2019-02-28T07:11:02.778Z,46.97
2019-02-28T07:13:29.890Z,40.20
2019-02-28T07:15:59.086Z,46.37
2019-02-28T07:18:26.713Z,40.93
2019-02-28T07:20:53.794Z,45.70
2019-02-28T07:23:22.259Z,44.20
2019-02-28T07:25:50.094Z,43.03
2019-02-28T07:28:17.529Z,44.93
2019-02-28T07:30:44.646Z,45.23
2019-02-28T07:33:11.901Z,45.10
2019-02-28T07:35:38.998Z,45.10
2019-02-28T07:38:06.268Z,46.13
2019-02-28T07:40:33.970Z,50.73
2019-02-28T07:43:01.533Z,47.83
2019-02-28T07:45:29.675Z,45.67
2019-02-28T07:47:58.099Z,48.67
2019-02-28T07:50:25.929Z,47.67
2019-02-28T07:52:53.244Z,48.07
2019-02-28T07:55:20.514Z,49.77
2019-02-28T07:57:51.188Z,49.83
2019-02-28T08:00:18.513Z,49.20
2019-02-28T08:05:20.180Z,49.50
2019-02-28T08:07:51.816Z,50.83
2019-02-28T08:10:17.054Z,50.20
2019-02-28T08:12:43.800Z,53.63
2019-02-28T08:15:13.728Z,53.70
2019-02-28T08:17:43.933Z,51.17
2019-02-28T08:20:09.658Z,51.00
2019-02-28T08:22:36.499Z,52.40
2019-02-28T08:25:03.506Z,49.87
2019-02-28T08:27:30.549Z,54.47
2019-02-28T08:29:57.298Z,51.43
2019-02-28T08:32:24.289Z,55.27
2019-02-28T08:34:51.348Z,53.33
2019-02-28T08:37:19.055Z,54.53
2019-02-28T08:39:46.783Z,56.97
2019-02-28T08:42:13.531Z,55.43
2019-02-28T08:44:58.049Z,56.63
2019-02-28T08:47:22.019Z,58.60
2019-02-28T08:49:48.799Z,58.77
2019-02-28T08:52:16.059Z,59.53
2019-02-28T08:54:43.557Z,60.00
2019-02-28T08:57:10.490Z,57.83
2019-02-28T08:59:37.610Z,59.70
2019-02-28T09:02:04.516Z,60.07
2019-02-28T09:04:31.143Z,64.57
2019-02-28T09:06:58.034Z,59.77
2019-02-28T09:09:25.155Z,63.10
2019-02-28T09:11:53.158Z,63.83
2019-02-28T09:14:21.711Z,61.07
2019-02-28T09:16:48.734Z,66.20
2019-02-28T09:19:15.760Z,72.93
2019-02-28T09:21:42.867Z,68.27
2019-02-28T09:24:12.719Z,64.00
2019-02-28T09:26:38.383Z,65.40
2019-02-28T09:29:05.178Z,63.97
2019-02-28T09:31:32.021Z,63.17
2019-02-28T09:33:59.818Z,72.13
2019-02-28T09:36:28.091Z,64.10
2019-02-28T09:38:57.218Z,65.77
2019-02-28T09:41:24.390Z,65.63
2019-02-28T09:43:51.185Z,66.33
2019-02-28T09:46:18.842Z,64.83
2019-02-28T09:48:47.678Z,57.80
2019-02-28T09:51:15.006Z,61.43
2019-02-28T09:53:42.513Z,63.90
2019-02-28T09:56:10.503Z,59.67
2019-02-28T09:58:39.715Z,61.20
2019-02-28T10:01:06.951Z,63.63
2019-02-28T10:03:35.194Z,60.50
2019-02-28T10:06:02.392Z,61.10
2019-02-28T10:08:29.534Z,58.00
2019-02-28T10:10:57.030Z,60.83
2019-02-28T10:13:25.813Z,61.60
2019-02-28T10:15:53.914Z,57.47
2019-02-28T10:18:21.088Z,55.10
2019-02-28T10:20:48.236Z,58.90
2019-02-28T10:23:18.376Z,55.73
2019-02-28T10:25:44.171Z,56.90
2019-02-28T10:28:10.980Z,61.03
2019-02-28T10:30:37.756Z,58.40
2019-02-28T10:33:04.801Z,58.10
2019-02-28T10:35:33.468Z,58.27
2019-02-28T10:38:00.844Z,57.10
2019-02-28T10:40:28.333Z,58.67
2019-02-28T10:42:55.638Z,60.77
2019-02-28T10:45:22.748Z,55.30
2019-02-28T10:48:03.947Z,55.40
2019-02-28T10:50:33.274Z,54.10
2019-02-28T10:53:04.256Z,54.70
2019-02-28T10:55:29.736Z,56.47
2019-02-28T10:57:56.847Z,53.10
2019-02-28T11:00:29.426Z,51.30
2019-02-28T11:02:57.752Z,53.23
2019-02-28T11:05:53.407Z,57.77
2019-02-28T11:08:19.035Z,53.60
2019-02-28T11:10:46.136Z,52.87
2019-02-28T11:13:14.790Z,54.43
2019-02-28T11:15:47.933Z,60.53
2019-02-28T11:18:11.490Z,55.00
2019-02-28T11:20:39.441Z,56.17
2019-02-28T11:23:07.779Z,53.87
2019-02-28T11:25:36.376Z,54.30
2019-02-28T11:28:03.584Z,59.53
2019-02-28T11:30:30.596Z,54.70
2019-02-28T11:33:03.049Z,57.73
2019-02-28T11:35:26.638Z,52.97
2019-02-28T11:37:53.863Z,56.63
2019-02-28T11:40:43.911Z,51.53
2019-02-28T11:43:52.633Z,57.53
2019-02-28T11:46:19.368Z,56.43
2019-02-28T11:48:59.891Z,54.70
2019-02-28T11:51:27.403Z,54.90
2019-02-28T11:53:54.526Z,52.20
2019-02-28T11:56:22.180Z,55.90
2019-02-28T11:58:51.755Z,54.37
2019-02-28T12:01:19.056Z,52.33
2019-02-28T12:03:46.703Z,53.63
2019-02-28T12:06:14.018Z,57.50
2019-02-28T12:08:41.595Z,56.93
2019-02-28T12:11:10.220Z,54.13
2019-02-28T12:13:37.365Z,52.67
2019-02-28T12:16:04.521Z,51.00
2019-02-28T12:18:31.707Z,55.77
2019-02-28T12:21:02.100Z,52.33
2019-02-28T12:23:28.366Z,51.40
2019-02-28T12:25:55.536Z,51.37
2019-02-28T12:28:23.048Z,51.50
2019-02-28T12:30:50.184Z,50.13
2019-02-28T12:33:37.035Z,52.50
2019-02-28T12:36:04.290Z,50.43
2019-02-28T12:38:31.440Z,51.93
2019-02-28T12:40:58.297Z,49.63
2019-02-28T12:43:25.666Z,55.37
2019-02-28T12:45:53.589Z,50.73
2019-02-28T12:48:21.336Z,50.50
2019-02-28T12:51:02.282Z,52.73
2019-02-28T12:53:29.516Z,52.83
2019-02-28T12:55:56.262Z,49.20
2019-02-28T12:58:23.525Z,55.13
2019-02-28T13:00:50.634Z,55.47
2019-02-28T13:03:20.292Z,60.77
2019-02-28T13:05:48.105Z,55.97
2019-02-28T13:08:15.479Z,55.43
2019-02-28T13:10:43.479Z,57.17
2019-02-28T13:13:11.169Z,54.40
2019-02-28T13:15:38.338Z,53.53
2019-02-28T13:18:08.862Z,54.03
2019-02-28T13:20:36.414Z,51.97
2019-02-28T13:23:03.998Z,55.47
2019-02-28T13:25:31.071Z,55.47
2019-02-28T13:27:58.165Z,55.17
2019-02-28T13:30:25.424Z,53.30
2019-02-28T13:32:52.936Z,51.33
2019-02-28T13:35:22.489Z,53.20
2019-02-28T13:37:49.711Z,58.73
2019-02-28T13:40:16.847Z,61.27
2019-02-28T13:42:43.991Z,55.33
2019-02-28T13:45:16.211Z,91.70
2019-02-28T13:47:42.019Z,51.83
2019-02-28T13:50:17.310Z,53.43
2019-02-28T13:52:44.670Z,57.90
2019-02-28T13:55:14.199Z,52.20
2019-02-28T13:57:43.678Z,61.27
2019-02-28T14:00:53.092Z,94.73
2019-02-28T14:03:20.241Z,65.30
2019-02-28T14:05:47.758Z,53.33
2019-02-28T14:08:15.181Z,64.50
2019-02-28T14:10:42.852Z,75.83
2019-02-28T14:13:09.998Z,75.87
2019-02-28T14:15:39.479Z,60.13
2019-02-28T14:18:07.563Z,64.63
2019-02-28T14:20:35.649Z,68.17
2019-02-28T14:23:02.725Z,81.20
2019-02-28T14:25:29.705Z,66.90
2019-02-28T14:27:56.878Z,70.17
2019-02-28T14:30:26.108Z,85.63
2019-02-28T14:32:53.589Z,58.13
2019-02-28T14:35:22.891Z,63.47
2019-02-28T14:37:51.886Z,119.07
2019-02-28T14:40:19.430Z,87.07
2019-02-28T14:42:46.381Z,64.80
2019-02-28T14:45:14.237Z,58.37
2019-02-28T14:47:42.611Z,68.53
2019-02-28T14:50:10.379Z,54.83
2019-02-28T14:52:39.404Z,56.47
2019-02-28T14:55:08.837Z,50.17
2019-02-28T14:57:35.927Z,50.83
2019-02-28T15:03:02.772Z,61.20
2019-02-28T15:05:28.974Z,53.53
2019-02-28T15:08:36.891Z,54.10
2019-02-28T15:11:06.477Z,52.57
2019-02-28T15:13:33.481Z,51.07
2019-02-28T15:16:01.989Z,51.07
2019-02-28T15:18:28.949Z,50.77
2019-02-28T15:20:55.691Z,53.73
2019-02-28T15:23:22.518Z,53.67
2019-02-28T15:25:50.810Z,52.67
2019-02-28T15:28:18.838Z,48.27
2019-02-28T15:30:46.045Z,47.57
2019-02-28T15:33:13.997Z,50.20
2019-02-28T15:35:41.897Z,48.13
2019-02-28T15:38:10.424Z,47.60
2019-02-28T15:40:40.479Z,55.00
2019-02-28T15:43:07.223Z,53.30
2019-02-28T15:45:36.135Z,51.13
2019-02-28T15:48:22.584Z,54.20
2019-02-28T15:50:51.815Z,53.93
2019-02-28T15:53:18.846Z,59.63
2019-02-28T15:55:46.209Z,53.63
2019-02-28T15:58:13.885Z,51.83
2019-02-28T16:00:41.350Z,54.43
2019-02-28T16:03:09.024Z,54.67
2019-02-28T16:05:42.619Z,57.57
2019-02-28T16:08:09.362Z,55.10
2019-02-28T16:10:53.799Z,54.10
2019-02-28T16:13:22.646Z,57.77
2019-02-28T16:15:50.293Z,58.33
2019-02-28T16:18:19.097Z,52.53
2019-02-28T16:20:46.963Z,56.17
2019-02-28T16:23:14.496Z,56.57
2019-02-28T16:25:42.050Z,58.63
2019-02-28T16:28:09.257Z,57.30
2019-02-28T16:30:36.528Z,61.90
2019-02-28T16:33:04.005Z,59.60
2019-02-28T16:35:31.457Z,55.07
2019-02-28T16:37:58.905Z,63.40
2019-02-28T16:40:27.215Z,62.30
2019-02-28T16:42:54.791Z,62.67
2019-02-28T16:45:26.465Z,60.00
2019-02-28T16:47:55.710Z,65.07
2019-02-28T16:50:22.806Z,65.27
2019-02-28T16:52:50.825Z,64.77
2019-02-28T16:55:18.168Z,63.23
2019-02-28T16:57:47.095Z,69.17
2019-02-28T17:03:44.293Z,66.93
2019-02-28T17:06:11.812Z,68.13
2019-02-28T17:11:21.078Z,65.97
2019-02-28T17:13:54.427Z,68.73
2019-02-28T17:16:41.363Z,67.77
2019-02-28T17:19:08.621Z,70.20
2019-02-28T17:21:36.722Z,69.90
2019-02-28T17:24:23.592Z,71.00
2019-02-28T17:27:10.505Z,76.90
2019-02-28T17:29:42.164Z,71.10
2019-02-28T17:32:09.547Z,67.87
2019-02-28T17:34:37.210Z,77.37
2019-02-28T17:37:25.896Z,82.77
2019-02-28T17:39:52.499Z,70.30
2019-02-28T17:42:19.248Z,78.70
2019-02-28T17:45:26.216Z,74.67
2019-02-28T17:48:42.195Z,78.63
2019-02-28T17:51:48.157Z,77.67
2019-02-28T17:54:54.219Z,75.33
2019-02-28T17:58:01.904Z,72.67
2019-02-28T18:00:48.162Z,79.03
2019-02-28T18:03:53.292Z,78.43
2019-02-28T18:06:59.170Z,80.87
2019-02-28T18:10:06.047Z,76.07
2019-02-28T18:13:12.086Z,86.07
2019-02-28T18:16:21.384Z,78.77
2019-02-28T18:19:33.027Z,84.53
2019-02-28T18:22:33.958Z,90.80
2019-02-28T18:25:14.047Z,83.97
2019-02-28T18:28:22.606Z,87.67
2019-02-28T18:31:11.587Z,86.70
2019-02-28T18:33:41.758Z,87.70
2019-02-28T18:36:12.033Z,87.20
2019-02-28T18:38:38.878Z,94.00
2019-02-28T18:41:06.591Z,92.47
2019-02-28T18:43:34.826Z,91.13
2019-02-28T18:46:01.557Z,88.57
2019-02-28T18:48:28.603Z,91.07
2019-02-28T18:50:56.230Z,90.63
2019-02-28T18:53:22.999Z,83.40
2019-02-28T18:55:50.624Z,82.43
2019-02-28T18:58:37.014Z,88.73
2019-02-28T19:01:04.253Z,88.83
2019-02-28T19:03:30.982Z,84.43
2019-02-28T19:05:57.882Z,84.30
2019-02-28T19:08:24.874Z,84.63
2019-02-28T19:10:52.351Z,84.93
2019-02-28T19:13:19.159Z,92.33
2019-02-28T19:15:46.081Z,85.80
2019-02-28T19:18:12.947Z,89.23
2019-02-28T19:20:59.311Z,88.67
2019-02-28T19:23:26.503Z,94.60
2019-02-28T19:25:53.569Z,85.97
2019-02-28T19:28:20.511Z,86.07
2019-02-28T19:30:47.913Z,85.03
2019-02-28T19:33:14.708Z,84.57
2019-02-28T19:35:41.881Z,92.97
2019-02-28T19:38:09.010Z,93.07
2019-02-28T19:40:36.101Z,92.07
2019-02-28T19:43:03.210Z,83.90
2019-02-28T19:45:30.099Z,87.07
2019-02-28T19:47:56.834Z,86.17
2019-02-28T19:50:24.089Z,84.40
2019-02-28T19:52:50.984Z,87.37
2019-02-28T19:55:17.858Z,98.77
2019-02-28T19:58:05.069Z,101.60
2019-02-28T20:00:32.146Z,100.27
2019-02-28T20:03:12.650Z,92.33
2019-02-28T20:05:39.518Z,99.50
2019-02-28T20:08:06.265Z,107.80
2019-02-28T20:10:33.247Z,102.50
2019-02-28T20:13:00.445Z,102.87
2019-02-28T20:21:11.433Z,101.03
2019-02-28T20:23:38.470Z,104.53
2019-02-28T20:26:05.239Z,97.20
2019-02-28T20:28:32.382Z,111.57
2019-02-28T20:30:59.401Z,93.07
2019-02-28T20:33:26.145Z,102.30
2019-02-28T20:35:53.553Z,96.50
2019-02-28T20:38:20.422Z,105.47
2019-02-28T20:40:47.173Z,96.87
2019-02-28T20:43:14.068Z,100.43
2019-02-28T20:45:41.191Z,95.30
2019-02-28T20:48:08.655Z,98.20
2019-02-28T20:50:37.805Z,84.97
2019-02-28T20:53:05.452Z,90.63
2019-02-28T20:55:33.708Z,85.27
2019-02-28T20:58:00.862Z,86.33
2019-02-28T21:00:28.131Z,86.50
2019-02-28T21:02:55.117Z,82.47
2019-02-28T21:05:34.316Z,87.33
2019-02-28T21:08:01.531Z,91.97
2019-02-28T21:10:28.291Z,88.97
2019-02-28T21:12:55.412Z,82.03
2019-02-28T21:15:22.265Z,83.40
2019-02-28T21:17:49.151Z,84.77
2019-02-28T21:20:16.251Z,77.27
2019-02-28T21:22:43.103Z,87.50
2019-02-28T21:25:10.368Z,79.37
2019-02-28T21:27:38.129Z,89.60
2019-02-28T21:30:11.392Z,81.47
2019-02-28T21:32:38.135Z,79.00
2019-02-28T21:35:05.460Z,74.33
2019-02-28T21:37:32.212Z,77.27
2019-02-28T21:40:00.754Z,77.50
2019-02-28T21:42:28.522Z,75.73
2019-02-28T21:44:55.812Z,72.50
2019-02-28T21:50:31.888Z,72.00
2019-02-28T21:52:58.641Z,72.07
2019-02-28T21:55:25.390Z,68.93
2019-02-28T21:57:52.542Z,69.23
2019-02-28T22:00:21.223Z,72.23
2019-02-28T22:02:48.060Z,63.87
2019-02-28T22:05:15.298Z,60.13
2019-02-28T22:07:42.127Z,70.90
2019-02-28T22:10:09.949Z,61.87
2019-02-28T22:12:37.111Z,64.30
2019-02-28T22:15:04.934Z,62.27
2019-02-28T22:17:31.785Z,61.47
2019-02-28T22:19:58.565Z,61.37
2019-02-28T22:22:25.633Z,68.77
2019-02-28T22:24:52.711Z,66.93
2019-02-28T22:27:19.794Z,68.83
2019-02-28T22:29:46.836Z,62.23
2019-02-28T22:32:24.160Z,60.20
2019-02-28T22:35:06.207Z,61.53
2019-02-28T22:37:33.332Z,57.00
2019-02-28T22:39:59.974Z,59.97
2019-02-28T22:42:26.831Z,61.60
2019-02-28T22:44:53.578Z,64.73
2019-02-28T22:47:20.592Z,60.37
2019-02-28T22:49:48.163Z,58.83
2019-02-28T22:52:15.210Z,60.73
2019-02-28T22:54:41.986Z,57.67
2019-02-28T22:57:08.823Z,58.40
2019-02-28T22:59:35.709Z,59.53
2019-02-28T23:02:02.564Z,60.80
2019-02-28T23:04:29.804Z,55.93
2019-02-28T23:06:56.556Z,54.37
2019-02-28T23:09:23.718Z,51.47
2019-02-28T23:11:50.861Z,53.43
2019-02-28T23:14:18.012Z,54.50
2019-02-28T23:16:45.070Z,53.03
2019-02-28T23:19:12.262Z,51.40
2019-02-28T23:21:39.699Z,55.37
2019-02-28T23:24:06.460Z,57.17
2019-02-28T23:27:12.641Z,58.50
2019-02-28T23:29:43.495Z,54.67
2019-02-28T23:32:49.586Z,46.80
2019-02-28T23:35:20.704Z,54.83
2019-02-28T23:37:47.803Z,51.83
2019-02-28T23:40:15.027Z,52.33
2019-02-28T23:42:42.152Z,49.67
2019-02-28T23:45:10.075Z,50.77
2019-02-28T23:47:37.425Z,51.53
2019-02-28T23:50:04.998Z,46.87
2019-02-28T23:52:32.474Z,50.30
2019-02-28T23:54:59.830Z,53.50
2019-02-28T23:57:27.284Z,53.40
2019-02-28T23:59:54.747Z,56.67
